createdAt,value
2018-09-04T00:02:16.639Z,101192.56
2018-09-04T00:04:43.684Z,101195.03
2018-09-04T00:07:10.705Z,101191.67
2018-09-04T00:09:38.097Z,101186.34
2018-09-04T00:12:05.149Z,101191.77
2018-09-04T00:14:32.145Z,101189.69
2018-09-04T00:16:59.134Z,101186.20
2018-09-04T00:19:26.155Z,101193.47
2018-09-04T00:21:53.612Z,101186.95
2018-09-04T00:24:20.683Z,101177.39
2018-09-04T00:26:47.776Z,101180.33
2018-09-04T00:29:14.873Z,101177.16
2018-09-04T00:31:41.859Z,101182.95
2018-09-04T00:34:08.873Z,101182.95
2018-09-04T00:36:36.216Z,101181.34
2018-09-04T00:39:03.995Z,101180.21
2018-09-04T00:41:30.987Z,101179.95
2018-09-04T00:43:58.147Z,101182.34
2018-09-04T00:46:25.227Z,101182.81
2018-09-04T00:48:52.289Z,101179.87
2018-09-04T00:51:19.628Z,101188.74
2018-09-04T00:53:46.619Z,101187.06
2018-09-04T00:56:13.605Z,101181.54
2018-09-04T00:58:40.623Z,101178.60
2018-09-04T01:01:07.652Z,101179.81
2018-09-04T01:03:34.723Z,101175.92
2018-09-04T01:06:01.895Z,101179.98
2018-09-04T01:08:28.881Z,101179.98
2018-09-04T01:10:55.967Z,101180.19
2018-09-04T01:13:23.039Z,101178.95
2018-09-04T01:15:50.024Z,101175.95
2018-09-04T01:18:17.045Z,101180.10
2018-09-04T01:20:44.139Z,101175.70
2018-09-04T01:23:11.120Z,101179.73
2018-09-04T01:25:38.490Z,101173.25
2018-09-04T01:28:06.026Z,101178.17
2018-09-04T01:30:33.058Z,101177.88
2018-09-04T01:33:00.052Z,101168.27
2018-09-04T01:35:27.057Z,101175.41
2018-09-04T01:37:54.119Z,101172.67
2018-09-04T01:40:21.479Z,101175.20
2018-09-04T01:42:48.536Z,101176.96
2018-09-04T01:45:15.520Z,101180.10
2018-09-04T01:47:42.932Z,101171.20
2018-09-04T01:50:09.933Z,101170.80
2018-09-04T01:52:37.219Z,101166.34
2018-09-04T01:55:04.503Z,101164.31
2018-09-04T01:57:31.484Z,101160.92
2018-09-04T01:59:58.463Z,101160.22
2018-09-04T02:02:32.420Z,101168.31
2018-09-04T02:04:59.740Z,101165.33
2018-09-04T02:07:27.089Z,101163.36
2018-09-04T02:09:54.087Z,101153.43
2018-09-04T02:12:21.290Z,101160.92
2018-09-04T02:14:48.280Z,101159.86
2018-09-04T02:17:15.347Z,101153.88
2018-09-04T02:19:42.745Z,101155.73
2018-09-04T02:22:09.728Z,101150.33
2018-09-04T02:24:36.716Z,101145.52
2018-09-04T02:27:03.776Z,101143.73
2018-09-04T02:29:30.757Z,101142.13
2018-09-04T02:31:57.888Z,101143.59
2018-09-04T02:34:24.883Z,101141.26
2018-09-04T02:36:51.869Z,101142.93
2018-09-04T02:39:18.907Z,101140.11
2018-09-04T02:41:45.888Z,101133.61
2018-09-04T02:44:13.039Z,101137.31
2018-09-04T02:46:40.038Z,101131.70
2018-09-04T02:49:07.500Z,101130.41
2018-09-04T02:51:34.959Z,101131.07
2018-09-04T02:54:02.003Z,101136.02
2018-09-04T02:56:28.986Z,101136.28
2018-09-04T02:58:56.109Z,101131.07
2018-09-04T03:01:23.101Z,101129.00
2018-09-04T03:03:50.169Z,101126.92
2018-09-04T03:06:17.160Z,101124.36
2018-09-04T03:08:44.153Z,101130.27
2018-09-04T03:11:11.130Z,101127.64
2018-09-04T03:13:38.202Z,101124.53
2018-09-04T03:16:05.179Z,101119.16
2018-09-04T03:18:32.242Z,101127.88
2018-09-04T03:20:59.224Z,101118.66
2018-09-04T03:23:26.233Z,101128.34
2018-09-04T03:25:53.247Z,101118.20
2018-09-04T03:28:20.294Z,101118.29
2018-09-04T03:30:47.591Z,101121.48
2018-09-04T03:33:14.552Z,101121.59
2018-09-04T03:35:41.708Z,101120.42
2018-09-04T03:38:08.718Z,101122.75
2018-09-04T03:40:35.708Z,101122.89
2018-09-04T03:43:02.747Z,101122.05
2018-09-04T03:45:29.787Z,101124.30
2018-09-04T03:47:56.756Z,101122.08
2018-09-04T03:50:23.903Z,101124.32
2018-09-04T03:52:50.868Z,101125.78
2018-09-04T03:55:17.863Z,101126.45
2018-09-04T03:57:44.856Z,101130.53
2018-09-04T04:00:11.971Z,101129.13
2018-09-04T04:02:39.243Z,101129.84
2018-09-04T04:05:06.257Z,101134.86
2018-09-04T04:07:33.316Z,101134.05
2018-09-04T04:10:00.449Z,101140.06
2018-09-04T04:12:27.388Z,101139.72
2018-09-04T04:14:54.475Z,101135.46
2018-09-04T04:17:21.506Z,101135.84
2018-09-04T04:19:48.496Z,101135.60
2018-09-04T04:22:15.484Z,101136.25
2018-09-04T04:24:42.648Z,101130.00
2018-09-04T04:27:09.672Z,101136.70
2018-09-04T04:29:36.691Z,101137.84
2018-09-04T04:32:03.708Z,101140.84
2018-09-04T04:34:31.164Z,101139.57
2018-09-04T04:36:58.164Z,101146.53
2018-09-04T04:39:25.223Z,101147.11
2018-09-04T04:41:52.332Z,101146.16
2018-09-04T04:44:19.492Z,101158.31
2018-09-04T04:46:46.460Z,101152.59
2018-09-04T04:49:13.632Z,101157.32
2018-09-04T04:51:40.613Z,101160.13
2018-09-04T04:54:07.629Z,101162.53
2018-09-04T04:56:34.711Z,101168.06
2018-09-04T04:59:01.921Z,101164.53
2018-09-04T05:01:29.196Z,101165.72
2018-09-04T05:03:56.277Z,101161.14
2018-09-04T05:06:23.264Z,101161.46
2018-09-04T05:08:50.256Z,101161.46
2018-09-04T05:11:17.279Z,101164.45
2018-09-04T05:13:44.242Z,101161.33
2018-09-04T05:16:11.321Z,101168.66
2018-09-04T05:18:38.411Z,101168.94
2018-09-04T05:21:05.572Z,101168.86
2018-09-04T05:23:32.551Z,101169.08
2018-09-04T05:25:59.527Z,101172.56
2018-09-04T05:28:26.796Z,101171.48
2018-09-04T05:30:53.842Z,101178.41
2018-09-04T05:33:56.044Z,101182.67
2018-09-04T05:36:23.237Z,101176.87
2018-09-04T05:38:50.307Z,101178.68
2018-09-04T05:41:17.293Z,101178.00
2018-09-04T05:43:52.335Z,101178.63
2018-09-04T05:46:24.461Z,101179.41
2018-09-04T05:48:51.587Z,101176.55
2018-09-04T05:51:18.559Z,101183.44
2018-09-04T05:53:45.637Z,101182.89
2018-09-04T05:56:12.751Z,101187.29
2018-09-04T05:58:39.743Z,101185.16
2018-09-04T06:01:06.860Z,101190.45
2018-09-04T06:03:33.884Z,101183.64
2018-09-04T06:06:00.966Z,101184.27
2018-09-04T06:08:28.044Z,101188.36
2018-09-04T06:10:55.144Z,101189.50
2018-09-04T06:13:22.152Z,101183.62
2018-09-04T06:15:49.212Z,101192.45
2018-09-04T06:18:16.584Z,101185.52
2018-09-04T06:20:43.671Z,101180.81
2018-09-04T06:23:10.753Z,101185.08
2018-09-04T06:25:37.747Z,101188.88
2018-09-04T06:28:04.801Z,101190.28
2018-09-04T06:30:32.019Z,101191.50
2018-09-04T06:32:59.164Z,101197.38
2018-09-04T06:35:26.641Z,101197.25
2018-09-04T06:37:53.631Z,101201.91
2018-09-04T06:40:20.671Z,101195.24
2018-09-04T06:42:47.667Z,101191.05
2018-09-04T06:45:14.693Z,101191.50
2018-09-04T06:47:42.047Z,101193.22
2018-09-04T06:50:09.172Z,101194.58
2018-09-04T06:52:36.176Z,101194.72
2018-09-04T06:55:03.195Z,101194.31
2018-09-04T06:57:30.460Z,101197.58
2018-09-04T06:59:57.471Z,101195.77
2018-09-04T07:02:24.544Z,101192.77
2018-09-04T07:04:51.560Z,101196.58
2018-09-04T07:07:18.623Z,101193.02
2018-09-04T07:09:45.619Z,101199.11
2018-09-04T07:12:12.648Z,101196.81
2018-09-04T07:14:39.689Z,101205.46
2018-09-04T07:17:06.870Z,101198.57
2018-09-04T07:19:33.868Z,101208.45
2018-09-04T07:22:00.836Z,101208.63
2018-09-04T07:24:27.824Z,101208.45
2018-09-04T07:26:55.036Z,101216.34
2018-09-04T07:29:22.099Z,101213.84
2018-09-04T07:31:49.104Z,101212.90
2018-09-04T07:34:16.109Z,101211.45
2018-09-04T07:36:43.266Z,101207.22
2018-09-04T07:39:11.599Z,101212.48
2018-09-04T07:41:38.854Z,101208.68
2018-09-04T07:44:05.998Z,101209.89
2018-09-04T07:46:33.261Z,101214.02
2018-09-04T07:49:00.292Z,101215.16
2018-09-04T07:51:27.282Z,101217.56
2018-09-04T07:53:54.621Z,101215.58
2018-09-04T07:56:21.667Z,101211.94
2018-09-04T07:58:48.692Z,101212.78
2018-09-04T08:01:15.679Z,101214.87
2018-09-04T08:03:42.668Z,101207.95
2018-09-04T08:06:09.763Z,101205.89
2018-09-04T08:08:36.977Z,101203.34
2018-09-04T08:11:04.572Z,101208.80
2018-09-04T08:13:31.655Z,101208.38
2018-09-04T08:15:58.655Z,101206.94
2018-09-04T08:18:25.756Z,101211.45
2018-09-04T08:20:52.812Z,101214.28
2018-09-04T08:23:19.728Z,101211.17
2018-09-04T08:25:47.034Z,101214.20
2018-09-04T08:28:14.048Z,101216.30
2018-09-04T08:30:41.028Z,101219.55
2018-09-04T08:33:08.435Z,101212.58
2018-09-04T08:35:35.371Z,101210.78
2018-09-04T08:38:02.352Z,101209.34
2018-09-04T08:40:31.567Z,101206.06
2018-09-04T08:42:58.746Z,101206.37
2018-09-04T08:45:25.912Z,101205.27
2018-09-04T08:47:52.965Z,101185.63
2018-09-04T08:50:26.855Z,101211.14
2018-09-04T08:52:53.865Z,101202.75
2018-09-04T08:55:21.012Z,101207.70
2018-09-04T08:57:47.971Z,101201.78
2018-09-04T09:00:15.392Z,101200.77
2018-09-04T09:02:42.483Z,101197.61
2018-09-04T09:05:09.483Z,101201.45
2018-09-04T09:07:36.467Z,101203.45
2018-09-04T09:10:03.559Z,101201.02
2018-09-04T09:12:30.620Z,101206.12
2018-09-04T09:14:57.787Z,101205.73
2018-09-04T09:17:25.055Z,101210.52
2018-09-04T09:19:52.061Z,101211.79
2018-09-04T09:22:19.044Z,101198.35
2018-09-04T09:24:46.294Z,101203.81
2018-09-04T09:27:13.316Z,101206.17
2018-09-04T09:29:40.419Z,101206.72
2018-09-04T09:32:07.506Z,101202.77
2018-09-04T09:34:34.488Z,101201.17
2018-09-04T09:37:01.751Z,101208.77
2018-09-04T09:39:28.992Z,101200.01
2018-09-04T09:41:55.971Z,101205.38
2018-09-04T09:44:22.958Z,101196.45
2018-09-04T09:46:49.968Z,101198.45
2018-09-04T09:49:17.053Z,101198.80
2018-09-04T09:51:44.108Z,101197.53
2018-09-04T09:54:11.193Z,101190.08
2018-09-04T09:56:38.192Z,101190.34
2018-09-04T09:59:05.240Z,101185.02
2018-09-04T10:01:38.151Z,101181.52
2018-09-04T10:04:06.580Z,101185.13
2018-09-04T10:06:33.429Z,101180.38
2018-09-04T10:09:00.676Z,101180.81
2018-09-04T10:11:27.700Z,101180.26
2018-09-04T10:13:54.732Z,101181.53
2018-09-04T10:16:22.636Z,101184.10
2018-09-04T10:18:49.658Z,101179.98
2018-09-04T10:21:16.810Z,101176.52
2018-09-04T10:23:43.867Z,101170.20
2018-09-04T10:26:10.914Z,101165.44
2018-09-04T10:28:37.972Z,101162.49
2018-09-04T10:31:05.892Z,101167.12
2018-09-04T10:33:32.875Z,101167.06
2018-09-04T10:35:59.984Z,101167.34
2018-09-04T10:38:27.074Z,101163.45
2018-09-04T10:40:59.197Z,101160.47
2018-09-04T10:43:27.262Z,101169.02
2018-09-04T10:45:59.862Z,101168.61
2018-09-04T10:48:26.944Z,101168.44
2018-09-04T10:50:53.976Z,101171.51
2018-09-04T10:53:21.060Z,101167.31
2018-09-04T10:55:48.213Z,101161.38
2018-09-04T10:58:15.284Z,101161.50
2018-09-04T11:00:42.356Z,101156.93
2018-09-04T11:03:09.649Z,101164.53
2018-09-04T11:05:36.680Z,101148.83
2018-09-04T11:08:03.687Z,101150.17
2018-09-04T11:10:31.136Z,101153.57
2018-09-04T11:12:58.425Z,101151.77
2018-09-04T11:15:25.504Z,101151.72
2018-09-04T11:17:52.588Z,101148.47
2018-09-04T11:20:19.616Z,101150.78
2018-09-04T11:22:46.604Z,101156.40
2018-09-04T11:25:13.596Z,101157.32
2018-09-04T11:27:40.765Z,101156.35
2018-09-04T11:30:09.381Z,101156.08
2018-09-04T11:32:36.373Z,101157.65
2018-09-04T11:35:03.460Z,101150.48
2018-09-04T11:37:30.627Z,101150.91
2018-09-04T11:39:57.648Z,101163.67
2018-09-04T11:42:24.643Z,101161.71
2018-09-04T11:44:51.635Z,101152.84
2018-09-04T11:47:18.689Z,101152.99
2018-09-04T11:49:45.691Z,101150.97
2018-09-04T11:52:12.767Z,101148.41
2018-09-04T11:54:40.047Z,101149.53
2018-09-04T11:57:07.147Z,101144.98
2018-09-04T11:59:37.863Z,101143.76
2018-09-04T12:02:06.365Z,101141.36
2018-09-04T12:04:33.411Z,101144.71
2018-09-04T12:07:00.387Z,101150.27
2018-09-04T12:09:27.536Z,101142.36
2018-09-04T12:11:55.714Z,101145.17
2018-09-04T12:14:27.401Z,101146.08
2018-09-04T12:16:55.816Z,101148.23
2018-09-04T12:19:25.154Z,101160.11
2018-09-04T12:21:53.509Z,101152.25
2018-09-04T12:24:21.575Z,101145.13
2018-09-04T12:26:50.226Z,101145.39
2018-09-04T12:29:18.482Z,101151.27
2018-09-04T12:31:46.624Z,101150.56
2018-09-04T12:34:15.371Z,101155.90
2018-09-04T12:36:42.943Z,101149.22
2018-09-04T12:39:11.327Z,101152.60
2018-09-04T12:41:39.893Z,101142.50
2018-09-04T12:44:09.085Z,101149.22
2018-09-04T12:46:37.637Z,101144.66
2018-09-04T12:49:06.302Z,101131.49
2018-09-04T12:51:35.319Z,101145.13
2018-09-04T12:54:04.013Z,101146.92
2018-09-04T12:56:33.277Z,101147.41
2018-09-04T12:59:01.882Z,101155.26
2018-09-04T13:01:31.455Z,101152.30
2018-09-04T13:04:00.367Z,101158.69
2018-09-04T13:06:31.749Z,101159.16
2018-09-04T13:09:00.653Z,101156.98
2018-09-04T13:14:12.250Z,101152.66
2018-09-04T13:16:41.801Z,101152.98
2018-09-04T13:19:10.232Z,101156.76
2018-09-04T13:21:40.476Z,101160.84
2018-09-04T13:24:08.433Z,101159.23
2018-09-04T13:26:35.528Z,101155.69
2018-09-04T13:29:02.706Z,101156.16
2018-09-04T13:31:29.684Z,101147.64
2018-09-04T13:33:56.919Z,101151.06
2018-09-04T13:36:23.978Z,101136.88
2018-09-04T13:38:50.955Z,101143.28
2018-09-04T13:41:18.047Z,101142.78
2018-09-04T13:43:45.059Z,101140.45
2018-09-04T13:46:12.063Z,101129.94
2018-09-04T13:48:39.468Z,101129.05
2018-09-04T13:51:07.766Z,101125.07
2018-09-04T13:53:34.895Z,101129.00
2018-09-04T13:56:01.969Z,101133.85
2018-09-04T13:58:28.953Z,101137.59
2018-09-04T14:00:56.014Z,101140.30
2018-09-04T14:03:23.797Z,101138.92
2018-09-04T14:05:50.881Z,101142.95
2018-09-04T14:08:17.941Z,101143.19
2018-09-04T14:10:45.057Z,101142.05
2018-09-04T14:13:12.392Z,101141.25
2018-09-04T14:15:39.420Z,101139.67
2018-09-04T14:18:06.418Z,101144.38
2018-09-04T14:20:33.413Z,101146.98
2018-09-04T14:23:00.483Z,101143.03
2018-09-04T14:25:27.535Z,101148.10
2018-09-04T14:27:54.584Z,101148.52
2018-09-04T14:30:21.855Z,101144.14
2018-09-04T14:32:48.930Z,101141.22
2018-09-04T14:35:15.907Z,101147.74
2018-09-04T14:37:43.279Z,101149.88
2018-09-04T14:40:10.261Z,101148.27
2018-09-04T14:42:37.308Z,101153.58
2018-09-04T14:45:04.375Z,101150.44
2018-09-04T14:47:31.572Z,101156.29
2018-09-04T14:49:58.560Z,101158.71
2018-09-04T14:52:25.556Z,101159.39
2018-09-04T14:54:52.548Z,101158.87
2018-09-04T14:57:19.533Z,101165.29
2018-09-04T14:59:46.647Z,101176.55
2018-09-04T15:02:13.640Z,101174.25
2018-09-04T15:04:40.708Z,101174.03
2018-09-04T15:07:07.797Z,101169.88
2018-09-04T15:09:34.887Z,101170.08
2018-09-04T15:12:01.923Z,101170.08
2018-09-04T15:14:28.924Z,101171.64
2018-09-04T15:16:57.467Z,101172.19
2018-09-04T15:19:24.467Z,101171.77
2018-09-04T15:21:51.453Z,101180.55
2018-09-04T15:24:18.569Z,101176.66
2018-09-04T15:26:45.576Z,101180.30
2018-09-04T15:29:12.555Z,101172.80
2018-09-04T15:31:39.640Z,101180.04
2018-09-04T15:34:06.593Z,101173.02
2018-09-04T15:36:33.652Z,101172.87
2018-09-04T15:39:00.736Z,101175.41
2018-09-04T15:41:27.869Z,101177.43
2018-09-04T15:43:54.854Z,101170.05
2018-09-04T15:46:21.963Z,101173.88
2018-09-04T15:48:53.948Z,101175.83
2018-09-04T15:51:20.987Z,101179.55
2018-09-04T15:53:48.092Z,101180.05
2018-09-04T15:56:15.083Z,101183.66
2018-09-04T15:58:42.351Z,101178.83
2018-09-04T16:01:09.427Z,101173.66
2018-09-04T16:03:36.726Z,101173.85
2018-09-04T16:06:03.812Z,101170.35
2018-09-04T16:08:30.789Z,101162.61
2018-09-04T16:10:57.804Z,101166.81
2018-09-04T16:13:24.871Z,101162.14
2018-09-04T16:15:51.844Z,101163.02
2018-09-04T16:18:19.059Z,101159.86
2018-09-04T16:20:46.916Z,101166.20
2018-09-04T16:23:13.899Z,101171.80
2018-09-04T16:25:40.924Z,101174.73
2018-09-04T16:28:07.916Z,101173.75
2018-09-04T16:30:35.032Z,101170.20
2018-09-04T16:33:02.109Z,101169.69
2018-09-04T16:35:29.333Z,101171.72
2018-09-04T16:37:56.329Z,101175.41
2018-09-04T16:40:23.487Z,101174.05
2018-09-04T16:42:50.601Z,101180.59
2018-09-04T16:45:17.588Z,101177.87
2018-09-04T16:47:44.647Z,101177.03
2018-09-04T16:50:11.628Z,101172.34
2018-09-04T16:52:38.614Z,101180.59
2018-09-04T16:55:05.645Z,101186.87
2018-09-04T16:57:32.656Z,101160.88
2018-09-04T16:59:59.628Z,101187.38
2018-09-04T17:02:26.880Z,101182.73
2018-09-04T17:04:53.976Z,101184.97
2018-09-04T17:07:21.195Z,101185.11
2018-09-04T17:09:48.265Z,101190.91
2018-09-04T17:12:15.292Z,101192.13
2018-09-04T17:14:42.372Z,101192.28
2018-09-04T17:17:09.377Z,101193.58
2018-09-04T17:19:36.518Z,101195.72
2018-09-04T17:22:04.004Z,101199.13
2018-09-04T17:24:31.250Z,101199.01
2018-09-04T17:26:58.231Z,101197.64
2018-09-04T17:29:25.497Z,101197.78
2018-09-04T17:31:52.519Z,101198.75
2018-09-04T17:34:19.477Z,101205.38
2018-09-04T17:36:46.733Z,101201.43
2018-09-04T17:39:13.952Z,101203.56
2018-09-04T17:41:41.024Z,101206.30
2018-09-04T17:44:08.016Z,101212.04
2018-09-04T17:46:35.166Z,101208.50
2018-09-04T17:49:02.164Z,101213.18
2018-09-04T17:51:29.548Z,101215.00
2018-09-04T17:53:56.802Z,101210.78
2018-09-04T17:56:23.847Z,101219.47
2018-09-04T17:58:50.943Z,101217.86
2018-09-04T18:01:17.990Z,101216.80
2018-09-04T18:03:44.979Z,101223.02
2018-09-04T18:06:12.123Z,101225.56
2018-09-04T18:08:39.139Z,101221.50
2018-09-04T18:11:06.136Z,101223.49
2018-09-04T18:13:33.125Z,101228.03
2018-09-04T18:16:00.199Z,101224.55
2018-09-04T18:18:27.272Z,101222.92
2018-09-04T18:20:54.268Z,101229.44
2018-09-04T18:23:21.260Z,101227.53
2018-09-04T18:25:48.245Z,101232.25
2018-09-04T18:28:15.416Z,101229.14
2018-09-04T18:30:42.568Z,101229.74
2018-09-04T18:33:09.631Z,101227.27
2018-09-04T18:35:36.721Z,101228.61
2018-09-04T18:38:03.749Z,101227.52
2018-09-04T18:40:31.369Z,101234.22
2018-09-04T18:42:58.475Z,101235.21
2018-09-04T18:45:49.543Z,101243.66
2018-09-04T18:48:17.214Z,101248.16
2018-09-04T18:50:44.456Z,101249.34
2018-09-04T18:53:11.522Z,101245.41
2018-09-04T18:55:38.980Z,101253.61
2018-09-04T18:58:06.321Z,101251.41
2018-09-04T19:00:33.336Z,101253.83
2018-09-04T19:03:00.359Z,101250.43
2018-09-04T19:05:27.401Z,101255.19
2018-09-04T19:07:54.400Z,101260.59
2018-09-04T19:10:21.471Z,101261.41
2018-09-04T19:12:48.699Z,101258.45
2018-09-04T19:15:15.718Z,101259.88
2018-09-04T19:17:42.770Z,101268.41
2018-09-04T19:20:09.789Z,101263.28
2018-09-04T19:22:38.220Z,101263.64
2018-09-04T19:25:06.994Z,101262.73
2018-09-04T19:27:34.003Z,101261.00
2018-09-04T19:30:01.721Z,101265.12
2018-09-04T19:32:29.689Z,101263.98
2018-09-04T19:34:56.676Z,101264.13
2018-09-04T19:37:23.802Z,101267.13
2018-09-04T19:39:50.952Z,101257.98
2018-09-04T19:42:18.083Z,101262.70
2018-09-04T19:44:45.091Z,101263.48
2018-09-04T19:47:12.252Z,101266.16
2018-09-04T19:49:39.339Z,101272.55
2018-09-04T19:52:06.676Z,101267.47
2018-09-04T19:54:33.847Z,101274.09
2018-09-04T19:57:00.819Z,101274.17
2018-09-04T19:59:27.837Z,101277.70
2018-09-04T20:01:55.947Z,101280.24
2018-09-04T20:04:23.313Z,101280.97
2018-09-04T20:06:50.357Z,101281.78
2018-09-04T20:09:17.466Z,101280.38
2018-09-04T20:11:44.472Z,101276.83
2018-09-04T20:14:11.639Z,101266.89
2018-09-04T20:16:38.626Z,101275.69
2018-09-04T20:19:05.713Z,101278.48
2018-09-04T20:21:32.852Z,101271.76
2018-09-04T20:23:59.853Z,101275.88
2018-09-04T20:26:26.847Z,101276.20
2018-09-04T20:28:54.083Z,101280.49
2018-09-04T20:31:21.071Z,101274.01
2018-09-04T20:33:48.044Z,101277.53
2018-09-04T20:36:16.052Z,101272.58
2018-09-04T20:38:43.261Z,101276.84
2018-09-04T20:41:10.307Z,101285.22
2018-09-04T20:43:37.603Z,101286.89
2018-09-04T20:46:04.610Z,101293.34
2018-09-04T20:48:38.747Z,101291.48
2018-09-04T20:51:05.767Z,101294.02
2018-09-04T20:53:32.798Z,101295.29
2018-09-04T20:56:00.157Z,101294.03
2018-09-04T20:58:38.805Z,101291.09
2018-09-04T21:01:17.449Z,101287.43
2018-09-04T21:03:56.678Z,101290.89
2018-09-04T21:06:35.444Z,101288.20
2018-09-04T21:09:15.484Z,101286.27
2018-09-04T21:11:42.739Z,101301.84
2018-09-04T21:14:09.775Z,101296.96
2018-09-04T21:16:37.654Z,101299.03
2018-09-04T21:19:05.565Z,101295.89
2018-09-04T21:21:33.793Z,101299.69
2018-09-04T21:24:01.045Z,101306.20
2018-09-04T21:26:28.408Z,101300.64
2018-09-04T21:28:55.424Z,101303.89
2018-09-04T21:31:22.465Z,101303.83
2018-09-04T21:33:49.561Z,101305.25
2018-09-04T21:36:16.561Z,101309.85
2018-09-04T21:38:43.667Z,101305.59
2018-09-04T21:41:10.678Z,101315.88
2018-09-04T21:43:37.650Z,101319.67
2018-09-04T21:46:04.704Z,101321.87
2018-09-04T21:48:32.454Z,101316.95
2018-09-04T21:50:59.671Z,101320.76
2018-09-04T21:53:26.851Z,101316.61
2018-09-04T21:55:54.279Z,101316.16
2018-09-04T21:58:21.300Z,101309.05
2018-09-04T22:00:48.448Z,101308.13
2018-09-04T22:03:15.448Z,101319.12
2018-09-04T22:05:42.472Z,101313.95
2018-09-04T22:08:09.554Z,101316.36
2018-09-04T22:10:42.112Z,101317.38
2018-09-04T22:13:09.285Z,101317.32
2018-09-04T22:15:36.276Z,101319.05
2018-09-04T22:18:03.459Z,101318.87
2018-09-04T22:20:30.543Z,101319.98
2018-09-04T22:22:57.706Z,101323.53
2018-09-04T22:25:24.787Z,101327.42
2018-09-04T22:27:52.176Z,101327.27
2018-09-04T22:30:19.246Z,101318.89
2018-09-04T22:32:46.323Z,101325.04
2018-09-04T22:35:13.623Z,101323.24
2018-09-04T22:37:40.959Z,101320.18
2018-09-04T22:40:08.433Z,101323.02
2018-09-04T22:42:35.859Z,101323.32
2018-09-04T22:45:03.155Z,101323.42
2018-09-04T22:47:30.616Z,101326.44
2018-09-04T22:50:03.680Z,101322.72
2018-09-04T22:52:31.615Z,101326.34
2018-09-04T22:55:00.718Z,101329.97
2018-09-04T22:57:28.216Z,101331.34
2018-09-04T22:59:55.239Z,101322.07
2018-09-04T23:02:22.394Z,101325.27
2018-09-04T23:04:49.420Z,101325.41
2018-09-04T23:07:17.449Z,101328.73
2018-09-04T23:09:44.844Z,101335.80
2018-09-04T23:12:12.446Z,101328.40
2018-09-04T23:14:40.062Z,101332.05
2018-09-04T23:17:07.277Z,101336.42
2018-09-04T23:19:34.303Z,101339.44
2018-09-04T23:22:01.798Z,101344.16
2018-09-04T23:24:29.134Z,101348.65
2018-09-04T23:26:56.527Z,101350.14
2018-09-04T23:29:23.546Z,101350.14
2018-09-04T23:31:50.557Z,101353.64
2018-09-04T23:34:17.583Z,101352.84
2018-09-04T23:36:44.579Z,101348.81
2018-09-04T23:39:11.679Z,101349.17
2018-09-04T23:41:38.833Z,101351.07
2018-09-04T23:44:05.856Z,101348.87
2018-09-04T23:46:32.932Z,101344.52
2018-09-04T23:49:01.015Z,101342.37
2018-09-04T23:51:28.090Z,101344.11
2018-09-04T23:53:55.151Z,101339.85
2018-09-04T23:56:22.135Z,101338.59
2018-09-04T23:58:49.127Z,101339.22
